createdAt,value
2018-07-27T00:00:11.611Z,8.20
2018-07-27T00:02:39.996Z,8.00
2018-07-27T00:05:08.390Z,7.80
2018-07-27T00:07:36.847Z,7.20
2018-07-27T00:10:05.897Z,7.60
2018-07-27T00:12:34.159Z,7.63
2018-07-27T00:15:02.519Z,7.53
2018-07-27T00:17:30.877Z,8.10
2018-07-27T00:19:59.100Z,8.10
2018-07-27T00:22:27.350Z,7.40
2018-07-27T00:24:55.744Z,7.80
2018-07-27T00:27:24.032Z,8.33
2018-07-27T00:29:52.393Z,7.33
2018-07-27T00:32:20.725Z,8.43
2018-07-27T00:34:49.431Z,8.37
2018-07-27T00:37:17.671Z,8.23
2018-07-27T00:39:45.944Z,8.10
2018-07-27T00:42:14.310Z,8.60
2018-07-27T00:44:42.762Z,8.67
2018-07-27T00:47:11.063Z,7.80
2018-07-27T00:49:39.452Z,8.23
2018-07-27T00:52:07.825Z,8.60
2018-07-27T00:54:36.095Z,7.87
2018-07-27T00:57:04.379Z,8.77
2018-07-27T00:59:32.734Z,8.10
2018-07-27T01:02:01.019Z,7.80
2018-07-27T01:04:29.257Z,7.67
2018-07-27T01:06:57.548Z,8.00
2018-07-27T01:09:25.893Z,8.17
2018-07-27T01:11:54.282Z,7.87
2018-07-27T01:14:22.684Z,8.23
2018-07-27T01:16:57.495Z,8.03
2018-07-27T01:19:25.724Z,8.37
2018-07-27T01:21:54.068Z,7.80
2018-07-27T01:24:22.387Z,8.30
2018-07-27T01:26:50.726Z,7.80
2018-07-27T01:29:19.422Z,7.63
2018-07-27T01:31:47.724Z,7.70
2018-07-27T01:34:16.897Z,8.17
2018-07-27T01:36:45.265Z,8.40
2018-07-27T01:40:16.727Z,8.20
2018-07-27T01:42:45.024Z,7.63
2018-07-27T01:45:13.079Z,7.17
2018-07-27T01:47:41.438Z,8.20
2018-07-27T01:50:09.739Z,7.63
2018-07-27T01:52:38.064Z,8.43
2018-07-27T01:55:06.658Z,8.47
2018-07-27T01:57:35.025Z,8.10
2018-07-27T02:00:03.357Z,8.13
2018-07-27T02:02:31.637Z,8.00
2018-07-27T02:04:59.910Z,7.73
2018-07-27T02:07:28.186Z,7.80
2018-07-27T02:09:56.440Z,8.40
2018-07-27T02:12:27.765Z,8.10
2018-07-27T02:14:56.065Z,7.80
2018-07-27T02:17:24.404Z,8.37
2018-07-27T02:19:52.695Z,8.47
2018-07-27T02:22:21.029Z,8.30
2018-07-27T02:24:49.349Z,8.47
2018-07-27T02:27:17.712Z,8.50
2018-07-27T02:29:46.040Z,8.23
2018-07-27T02:32:14.303Z,8.37
2018-07-27T02:34:42.576Z,8.40
2018-07-27T02:37:10.830Z,8.80
2018-07-27T02:39:39.124Z,8.20
2018-07-27T02:42:07.502Z,8.87
2018-07-27T02:44:35.819Z,9.47
2018-07-27T02:47:04.179Z,8.63
2018-07-27T02:49:32.486Z,9.03
2018-07-27T02:52:00.736Z,7.47
2018-07-27T02:54:29.052Z,9.40
2018-07-27T02:56:57.380Z,9.10
2018-07-27T02:59:25.686Z,8.83
2018-07-27T03:01:54.415Z,9.30
2018-07-27T03:04:22.641Z,8.00
2018-07-27T03:06:50.968Z,8.27
2018-07-27T03:09:19.232Z,8.97
2018-07-27T03:11:47.528Z,9.40
2018-07-27T03:14:15.863Z,7.90
2018-07-27T03:16:44.184Z,9.20
2018-07-27T03:19:12.521Z,9.10
2018-07-27T03:21:40.850Z,8.63
2018-07-27T03:24:09.209Z,9.10
2018-07-27T03:26:37.555Z,9.40
2018-07-27T03:29:05.903Z,9.00
2018-07-27T03:31:34.220Z,9.20
2018-07-27T03:34:02.501Z,9.17
2018-07-27T03:36:30.822Z,9.40
2018-07-27T03:38:59.188Z,9.27
2018-07-27T03:41:27.503Z,9.53
2018-07-27T03:43:55.744Z,9.50
2018-07-27T03:46:24.008Z,10.77
2018-07-27T03:48:53.504Z,9.03
2018-07-27T03:51:21.833Z,8.67
2018-07-27T03:53:50.127Z,8.93
2018-07-27T03:56:18.372Z,9.87
2018-07-27T03:58:46.634Z,9.80
2018-07-27T04:01:14.837Z,9.30
2018-07-27T04:03:43.151Z,9.50
2018-07-27T04:06:11.506Z,8.37
2018-07-27T04:08:39.841Z,8.27
2018-07-27T04:11:08.099Z,9.10
2018-07-27T04:13:36.426Z,9.07
2018-07-27T04:16:05.051Z,8.80
2018-07-27T04:18:33.321Z,9.13
2018-07-27T04:21:01.588Z,9.33
2018-07-27T04:23:29.941Z,9.50
2018-07-27T04:25:58.273Z,9.07
2018-07-27T04:28:26.554Z,8.03
2018-07-27T04:30:54.928Z,8.77
2018-07-27T04:33:22.917Z,9.10
2018-07-27T04:35:51.449Z,7.90
2018-07-27T04:38:19.704Z,8.80
2018-07-27T04:40:48.115Z,9.70
2018-07-27T04:43:16.390Z,9.10
2018-07-27T04:45:44.654Z,8.00
2018-07-27T04:48:12.954Z,7.73
2018-07-27T04:50:41.231Z,7.50
2018-07-27T04:53:09.506Z,8.43
2018-07-27T04:55:37.835Z,8.20
2018-07-27T04:58:06.319Z,8.77
2018-07-27T05:00:34.627Z,9.43
2018-07-27T05:03:02.977Z,9.10
2018-07-27T05:05:31.351Z,8.70
2018-07-27T05:07:59.677Z,9.30
2018-07-27T05:10:33.379Z,8.80
2018-07-27T05:13:01.705Z,8.07
2018-07-27T05:15:30.088Z,9.27
2018-07-27T05:17:58.332Z,8.43
2018-07-27T05:20:26.644Z,9.13
2018-07-27T05:22:54.943Z,8.60
2018-07-27T05:25:23.269Z,8.97
2018-07-27T05:27:51.608Z,9.00
2018-07-27T05:30:19.866Z,8.60
2018-07-27T05:32:48.168Z,8.90
2018-07-27T05:35:16.519Z,8.37
2018-07-27T05:37:44.824Z,8.20
2018-07-27T05:40:13.146Z,9.00
2018-07-27T05:42:41.428Z,9.13
2018-07-27T05:45:09.639Z,9.03
2018-07-27T05:47:37.643Z,7.80
2018-07-27T05:50:06.379Z,8.57
2018-07-27T05:52:34.629Z,8.37
2018-07-27T05:55:02.966Z,8.73
2018-07-27T05:57:31.356Z,8.13
2018-07-27T05:59:59.597Z,8.80
2018-07-27T06:02:27.907Z,9.57
2018-07-27T06:04:56.231Z,9.10
2018-07-27T06:07:24.437Z,9.30
2018-07-27T06:09:53.022Z,8.80
2018-07-27T06:12:21.351Z,9.73
2018-07-27T06:14:49.659Z,8.63
2018-07-27T06:17:17.958Z,10.00
2018-07-27T06:19:46.302Z,9.70
2018-07-27T06:22:14.564Z,9.50
2018-07-27T06:24:52.745Z,9.10
2018-07-27T06:27:21.204Z,8.90
2018-07-27T06:29:49.896Z,9.30
2018-07-27T06:32:18.738Z,8.53
2018-07-27T06:34:47.256Z,9.13
2018-07-27T06:37:15.435Z,9.23
2018-07-27T06:39:44.954Z,9.23
2018-07-27T06:42:13.631Z,9.20
2018-07-27T06:44:42.045Z,9.10
2018-07-27T06:47:10.371Z,9.10
2018-07-27T06:49:38.635Z,9.00
2018-07-27T06:52:06.684Z,9.53
2018-07-27T06:54:35.040Z,9.90
2018-07-27T06:57:03.307Z,9.00
2018-07-27T06:59:31.578Z,9.53
2018-07-27T07:01:59.917Z,9.40
2018-07-27T07:04:28.245Z,10.50
2018-07-27T07:06:56.601Z,9.60
2018-07-27T07:09:24.923Z,9.70
2018-07-27T07:11:53.243Z,9.80
2018-07-27T07:14:21.559Z,10.37
2018-07-27T07:16:49.844Z,10.30
2018-07-27T07:19:18.133Z,10.30
2018-07-27T07:21:46.414Z,9.47
2018-07-27T07:24:14.719Z,11.30
2018-07-27T07:26:43.014Z,10.83
2018-07-27T07:29:11.334Z,10.23
2018-07-27T07:31:39.594Z,9.90
2018-07-27T07:34:07.928Z,10.13
2018-07-27T07:36:36.228Z,10.10
2018-07-27T07:39:07.916Z,9.80
2018-07-27T07:41:36.117Z,10.17
2018-07-27T07:44:04.367Z,10.00
2018-07-27T07:46:32.608Z,9.80
2018-07-27T07:49:06.775Z,9.37
2018-07-27T07:51:36.414Z,10.10
2018-07-27T07:54:04.675Z,11.60
2018-07-27T07:56:33.467Z,10.47
2018-07-27T07:59:02.040Z,10.03
2018-07-27T08:01:30.514Z,9.83
2018-07-27T08:03:58.922Z,10.40
2018-07-27T08:06:27.302Z,9.40
2018-07-27T08:08:56.157Z,9.83
2018-07-27T08:11:24.760Z,10.08
2018-07-27T08:13:53.027Z,9.53
2018-07-27T08:16:21.246Z,9.13
2018-07-27T08:18:49.561Z,9.30
2018-07-27T08:21:22.649Z,10.35
2018-07-27T08:23:51.023Z,9.88
2018-07-27T08:26:54.087Z,8.83
2018-07-27T08:29:23.575Z,9.88
2018-07-27T08:31:52.816Z,9.05
2018-07-27T08:34:21.449Z,9.23
2018-07-27T08:36:50.056Z,8.78
2018-07-27T08:39:19.618Z,8.73
2018-07-27T08:41:48.373Z,8.70
2018-07-27T08:44:18.009Z,9.10
2018-07-27T08:46:46.438Z,9.40
2018-07-27T08:49:14.755Z,7.97
2018-07-27T08:51:43.208Z,8.83
2018-07-27T08:54:11.499Z,9.28
2018-07-27T08:56:39.851Z,9.30
2018-07-27T08:59:08.214Z,8.58
2018-07-27T09:01:36.547Z,8.28
2018-07-27T09:04:04.902Z,8.50
2018-07-27T09:06:33.238Z,8.15
2018-07-27T09:09:01.502Z,8.13
2018-07-27T09:11:29.838Z,8.40
2018-07-27T09:13:58.124Z,8.58
2018-07-27T09:16:26.460Z,8.25
2018-07-27T09:18:54.793Z,8.55
2018-07-27T09:21:23.129Z,8.48
2018-07-27T09:23:51.386Z,7.97
2018-07-27T09:26:19.599Z,8.15
2018-07-27T09:28:47.955Z,8.23
2018-07-27T09:31:15.931Z,8.88
2018-07-27T09:33:44.005Z,9.35
2018-07-27T09:36:12.018Z,9.03
2018-07-27T09:38:40.337Z,8.05
2018-07-27T09:41:08.735Z,8.43
2018-07-27T09:43:37.044Z,8.73
2018-07-27T09:46:05.948Z,8.20
2018-07-27T09:48:34.238Z,7.80
2018-07-27T09:51:02.644Z,9.43
2018-07-27T09:53:30.962Z,9.25
2018-07-27T09:55:59.295Z,7.87
2018-07-27T09:58:27.633Z,8.20
2018-07-27T10:01:01.198Z,7.97
2018-07-27T10:03:29.529Z,8.90
2018-07-27T10:05:57.849Z,8.05
2018-07-27T10:08:26.158Z,7.85
2018-07-27T10:10:54.441Z,8.33
2018-07-27T10:13:22.732Z,9.10
2018-07-27T10:15:51.076Z,9.33
2018-07-27T10:18:19.337Z,8.20
2018-07-27T10:20:47.633Z,8.20
2018-07-27T10:23:15.979Z,8.08
2018-07-27T10:25:44.296Z,9.95
2018-07-27T10:28:12.596Z,7.17
2018-07-27T10:30:40.941Z,7.95
2018-07-27T10:33:09.211Z,7.65
2018-07-27T10:35:37.477Z,7.78
2018-07-27T10:38:05.844Z,7.85
2018-07-27T10:40:34.149Z,7.87
2018-07-27T10:43:02.367Z,7.80
2018-07-27T10:45:30.729Z,7.08
2018-07-27T10:47:59.147Z,7.85
2018-07-27T10:50:27.492Z,8.63
2018-07-27T10:52:55.818Z,7.90
2018-07-27T10:55:24.130Z,7.72
2018-07-27T10:57:52.437Z,8.20
2018-07-27T11:00:20.764Z,8.23
2018-07-27T11:02:49.056Z,8.65
2018-07-27T11:05:17.363Z,8.75
2018-07-27T11:07:45.402Z,8.25
2018-07-27T11:10:13.712Z,8.08
2018-07-27T11:12:41.750Z,7.78
2018-07-27T11:15:10.613Z,8.00
2018-07-27T11:17:39.309Z,8.55
2018-07-27T11:20:08.342Z,8.60
2018-07-27T11:22:36.657Z,8.20
2018-07-27T11:25:05.253Z,8.48
2018-07-27T11:27:33.534Z,8.88
2018-07-27T11:30:01.914Z,8.48
2018-07-27T11:32:30.146Z,8.15
2018-07-27T11:34:58.547Z,8.20
2018-07-27T11:37:26.924Z,8.60
2018-07-27T11:39:55.220Z,8.73
2018-07-27T11:42:23.488Z,8.98
2018-07-27T11:44:51.791Z,8.65
2018-07-27T11:47:20.035Z,9.50
2018-07-27T11:49:48.322Z,8.10
2018-07-27T11:52:16.617Z,7.35
2018-07-27T11:54:44.932Z,7.72
2018-07-27T11:57:13.257Z,8.48
2018-07-27T11:59:41.541Z,8.05
2018-07-27T12:02:09.858Z,8.13
2018-07-27T12:04:38.152Z,8.20
2018-07-27T12:07:06.416Z,7.72
2018-07-27T12:09:34.795Z,8.15
2018-07-27T12:12:03.116Z,8.55
2018-07-27T12:14:31.469Z,8.10
2018-07-27T12:16:59.620Z,8.35
2018-07-27T12:19:27.881Z,8.38
2018-07-27T12:21:56.172Z,7.75
2018-07-27T12:24:24.466Z,8.03
2018-07-27T12:26:52.822Z,8.25
2018-07-27T12:29:21.150Z,8.40
2018-07-27T12:31:49.430Z,8.10
2018-07-27T12:34:17.743Z,7.95
2018-07-27T12:36:46.809Z,7.60
2018-07-27T12:39:15.116Z,7.70
2018-07-27T12:41:43.352Z,8.45
2018-07-27T12:44:11.903Z,7.92
2018-07-27T12:46:40.350Z,8.53
2018-07-27T12:49:09.126Z,9.30
2018-07-27T12:51:37.469Z,8.20
2018-07-27T12:54:07.063Z,8.85
2018-07-27T12:56:35.324Z,7.92
2018-07-27T12:59:03.690Z,7.87
2018-07-27T13:01:31.983Z,7.35
2018-07-27T13:04:00.287Z,7.80
2018-07-27T13:06:28.576Z,7.15
2018-07-27T13:08:56.937Z,7.72
2018-07-27T13:11:25.225Z,7.67
2018-07-27T13:13:53.486Z,8.38
2018-07-27T13:16:21.816Z,7.30
2018-07-27T13:18:50.167Z,7.33
2018-07-27T13:21:18.510Z,8.13
2018-07-27T13:23:55.292Z,7.42
2018-07-27T13:28:52.041Z,7.15
2018-07-27T13:31:30.467Z,7.78
2018-07-27T13:34:44.064Z,7.75
2018-07-27T13:37:12.636Z,7.42
2018-07-27T13:39:41.574Z,7.35
2018-07-27T13:42:11.641Z,8.18
2018-07-27T13:44:40.267Z,8.30
2018-07-27T13:47:09.820Z,8.73
2018-07-27T13:49:38.171Z,8.50
2018-07-27T13:52:06.403Z,7.12
2018-07-27T13:54:35.409Z,7.65
2018-07-27T13:57:03.899Z,7.67
2018-07-27T13:59:32.258Z,6.90
2018-07-27T14:02:00.552Z,7.00
2018-07-27T14:04:28.917Z,6.40
2018-07-27T14:06:58.478Z,7.37
2018-07-27T14:09:26.764Z,6.97
2018-07-27T14:11:55.158Z,7.87
2018-07-27T14:14:23.490Z,7.12
2018-07-27T14:16:51.726Z,7.15
2018-07-27T14:19:20.301Z,7.92
2018-07-27T14:21:48.584Z,7.35
2018-07-27T14:24:16.858Z,6.78
2018-07-27T14:26:45.284Z,7.53
2018-07-27T14:29:13.650Z,6.65
2018-07-27T14:31:42.019Z,7.60
2018-07-27T14:34:10.449Z,7.10
2018-07-27T14:36:38.972Z,6.62
2018-07-27T14:39:10.203Z,7.42
2018-07-27T14:41:38.537Z,7.22
2018-07-27T14:44:06.771Z,7.30
2018-07-27T14:46:35.295Z,7.50
2018-07-27T14:49:07.817Z,8.23
2018-07-27T14:51:36.141Z,7.87
2018-07-27T14:54:04.883Z,7.42
2018-07-27T14:56:33.213Z,7.15
2018-07-27T14:59:01.553Z,7.25
2018-07-27T15:01:29.853Z,7.83
2018-07-27T15:03:58.164Z,8.15
2018-07-27T15:06:26.443Z,8.03
2018-07-27T15:08:54.704Z,8.15
2018-07-27T15:11:23.007Z,7.40
2018-07-27T15:13:51.298Z,8.43
2018-07-27T15:16:19.616Z,8.60
2018-07-27T15:18:47.923Z,8.00
2018-07-27T15:21:16.151Z,8.33
2018-07-27T15:23:44.470Z,8.63
2018-07-27T15:26:12.794Z,8.53
2018-07-27T15:28:41.043Z,8.55
2018-07-27T15:31:09.302Z,8.23
2018-07-27T15:33:37.516Z,8.40
2018-07-27T15:36:05.981Z,7.78
2018-07-27T15:38:34.302Z,8.10
2018-07-27T15:41:02.633Z,8.30
2018-07-27T15:43:30.888Z,7.40
2018-07-27T15:45:59.181Z,7.47
2018-07-27T15:48:27.584Z,7.65
2018-07-27T15:50:55.791Z,8.48
2018-07-27T15:53:24.042Z,8.05
2018-07-27T15:55:52.343Z,8.40
2018-07-27T15:58:20.589Z,8.13
2018-07-27T16:00:48.843Z,8.38
2018-07-27T16:03:17.120Z,8.15
2018-07-27T16:05:45.449Z,8.10
2018-07-27T16:08:13.747Z,8.33
2018-07-27T16:10:42.055Z,8.15
2018-07-27T16:13:10.544Z,8.48
2018-07-27T16:15:38.833Z,8.28
2018-07-27T16:18:07.204Z,8.50
2018-07-27T16:20:35.528Z,8.65
2018-07-27T16:23:03.915Z,8.30
2018-07-27T16:25:32.329Z,7.97
2018-07-27T16:28:00.648Z,8.48
2018-07-27T16:30:28.961Z,8.48
2018-07-27T16:32:57.294Z,9.20
2018-07-27T16:35:25.642Z,9.03
2018-07-27T16:37:53.944Z,8.70
2018-07-27T16:40:22.327Z,9.23
2018-07-27T16:42:50.612Z,7.78
2018-07-27T16:45:18.869Z,8.40
2018-07-27T16:47:47.241Z,7.67
2018-07-27T16:50:15.470Z,7.53
2018-07-27T16:52:43.742Z,8.30
2018-07-27T16:55:12.005Z,7.70
2018-07-27T16:57:40.371Z,7.67
2018-07-27T17:00:11.699Z,8.33
2018-07-27T17:02:40.013Z,8.55
2018-07-27T17:05:08.353Z,8.40
2018-07-27T17:07:42.986Z,9.33
2018-07-27T17:10:11.266Z,8.95
2018-07-27T17:12:39.562Z,8.90
2018-07-27T17:15:07.998Z,8.80
2018-07-27T17:17:36.365Z,8.88
2018-07-27T17:20:05.531Z,8.48
2018-07-27T17:22:33.814Z,8.00
2018-07-27T17:25:02.108Z,9.63
2018-07-27T17:27:30.416Z,8.28
2018-07-27T17:29:58.715Z,8.40
2018-07-27T17:32:27.002Z,8.33
2018-07-27T17:34:55.261Z,8.20
2018-07-27T17:37:23.605Z,7.60
2018-07-27T17:39:51.672Z,9.10
2018-07-27T17:42:19.776Z,8.23
2018-07-27T17:44:48.046Z,8.30
2018-07-27T17:47:16.358Z,7.97
2018-07-27T17:49:44.640Z,8.88
2018-07-27T17:52:12.946Z,7.92
2018-07-27T17:54:41.290Z,8.38
2018-07-27T17:57:09.512Z,8.53
2018-07-27T17:59:37.832Z,8.35
2018-07-27T18:02:06.093Z,8.08
2018-07-27T18:04:34.373Z,7.97
2018-07-27T18:07:02.763Z,8.85
2018-07-27T18:09:30.962Z,8.53
2018-07-27T18:11:59.276Z,8.98
2018-07-27T18:14:27.608Z,7.67
2018-07-27T18:16:55.981Z,7.30
2018-07-27T18:19:24.367Z,8.33
2018-07-27T18:21:52.693Z,8.43
2018-07-27T18:24:21.090Z,7.90
2018-07-27T18:26:49.415Z,8.05
2018-07-27T18:29:17.428Z,9.48
2018-07-27T18:31:45.809Z,9.23
2018-07-27T18:34:14.133Z,10.10
2018-07-27T18:36:42.482Z,9.53
2018-07-27T18:39:12.254Z,9.13
2018-07-27T18:41:40.612Z,9.25
2018-07-27T18:44:09.140Z,9.40
2018-07-27T18:46:38.525Z,9.08
2018-07-27T18:49:06.798Z,9.53
2018-07-27T18:51:35.156Z,8.68
2018-07-27T18:54:03.845Z,9.40
2018-07-27T18:56:32.120Z,9.43
2018-07-27T18:59:00.362Z,10.18
2018-07-27T19:01:28.696Z,9.50
2018-07-27T19:03:56.929Z,9.23
2018-07-27T19:06:25.268Z,10.07
2018-07-27T19:08:53.570Z,9.03
2018-07-27T19:11:21.556Z,9.90
2018-07-27T19:13:49.869Z,9.07
2018-07-27T19:16:18.173Z,9.50
2018-07-27T19:18:46.484Z,8.90
2018-07-27T19:21:14.757Z,10.20
2018-07-27T19:23:42.762Z,10.53
2018-07-27T19:26:11.154Z,10.07
2018-07-27T19:28:39.420Z,9.33
2018-07-27T19:31:08.082Z,10.60
2018-07-27T19:33:36.364Z,9.70
2018-07-27T19:36:04.706Z,9.70
2018-07-27T19:38:32.984Z,9.90
2018-07-27T19:41:01.347Z,9.83
2018-07-27T19:43:29.639Z,9.77
2018-07-27T19:45:57.902Z,10.57
2018-07-27T19:48:25.904Z,9.90
2018-07-27T19:50:54.641Z,10.47
2018-07-27T19:53:22.902Z,10.70
2018-07-27T19:55:51.175Z,11.00
2018-07-27T19:58:19.463Z,9.93
2018-07-27T20:00:47.771Z,9.90
2018-07-27T20:03:16.061Z,9.40
2018-07-27T20:05:44.528Z,10.00
2018-07-27T20:08:12.820Z,9.23
2018-07-27T20:10:41.205Z,9.37
2018-07-27T20:13:09.551Z,10.00
2018-07-27T20:15:38.916Z,11.83
2018-07-27T20:18:07.210Z,11.00
2018-07-27T20:20:35.549Z,9.73
2018-07-27T20:23:03.872Z,10.00
2018-07-27T20:25:32.248Z,10.43
2018-07-27T20:28:00.545Z,11.23
2018-07-27T20:30:32.432Z,10.60
2018-07-27T20:33:00.750Z,10.83
2018-07-27T20:35:29.045Z,10.97
2018-07-27T20:37:57.376Z,10.00
2018-07-27T20:40:25.696Z,10.20
2018-07-27T20:42:54.072Z,10.97
2018-07-27T20:45:22.325Z,10.50
2018-07-27T20:47:50.610Z,10.73
2018-07-27T20:50:18.841Z,10.23
2018-07-27T20:52:47.110Z,11.40
2018-07-27T20:55:15.406Z,11.10
2018-07-27T20:57:43.669Z,10.83
2018-07-27T21:00:13.112Z,9.07
2018-07-27T21:02:42.633Z,10.83
2018-07-27T21:05:11.648Z,11.17
2018-07-27T21:07:40.428Z,10.83
2018-07-27T21:10:08.858Z,10.90
2018-07-27T21:12:37.153Z,10.43
2018-07-27T21:15:05.500Z,10.13
2018-07-27T21:17:33.773Z,10.30
2018-07-27T21:20:02.185Z,10.90
2018-07-27T21:22:30.488Z,10.53
2018-07-27T21:24:58.981Z,10.07
2018-07-27T21:27:27.365Z,10.93
2018-07-27T21:29:55.657Z,10.30
2018-07-27T21:32:23.912Z,10.33
2018-07-27T21:34:52.196Z,9.50
2018-07-27T21:37:20.492Z,10.63
2018-07-27T21:39:48.890Z,10.83
2018-07-27T21:42:17.338Z,10.40
2018-07-27T21:44:45.681Z,9.90
2018-07-27T21:47:14.053Z,9.90
2018-07-27T21:49:42.391Z,9.90
2018-07-27T21:52:10.780Z,10.80
2018-07-27T21:54:39.157Z,9.63
2018-07-27T21:57:07.535Z,10.30
2018-07-27T21:59:35.861Z,10.90
2018-07-27T22:02:04.171Z,10.00
2018-07-27T22:04:32.507Z,11.50
2018-07-27T22:07:00.972Z,10.20
2018-07-27T22:09:29.243Z,10.47
2018-07-27T22:11:57.552Z,11.17
2018-07-27T22:14:25.834Z,10.20
2018-07-27T22:16:54.105Z,9.83
2018-07-27T22:19:22.532Z,9.90
2018-07-27T22:21:50.848Z,11.37
2018-07-27T22:24:19.178Z,10.13
2018-07-27T22:26:47.518Z,10.17
2018-07-27T22:29:15.805Z,9.83
2018-07-27T22:31:44.149Z,9.70
2018-07-27T22:34:12.401Z,9.93
2018-07-27T22:36:40.761Z,10.83
2018-07-27T22:39:10.342Z,11.33
2018-07-27T22:41:38.677Z,10.97
2018-07-27T22:44:07.008Z,9.50
2018-07-27T22:46:35.335Z,9.67
2018-07-27T22:49:03.679Z,9.20
2018-07-27T22:51:31.983Z,9.97
2018-07-27T22:54:00.366Z,11.00
2018-07-27T22:56:28.629Z,10.97
2018-07-27T22:58:56.969Z,10.60
2018-07-27T23:01:25.248Z,9.87
2018-07-27T23:03:53.581Z,9.50
2018-07-27T23:06:21.898Z,9.87
2018-07-27T23:08:50.213Z,9.40
2018-07-27T23:11:18.531Z,9.80
2018-07-27T23:13:46.856Z,8.70
2018-07-27T23:16:15.188Z,9.70
2018-07-27T23:18:43.518Z,9.07
2018-07-27T23:21:11.867Z,9.77
2018-07-27T23:23:46.590Z,9.60
2018-07-27T23:26:14.905Z,9.77
2018-07-27T23:28:43.253Z,9.50
2018-07-27T23:31:11.554Z,9.37
2018-07-27T23:33:39.864Z,9.13
2018-07-27T23:36:08.208Z,8.30
2018-07-27T23:38:36.475Z,9.53
2018-07-27T23:41:04.760Z,10.27
2018-07-27T23:43:33.068Z,10.00
2018-07-27T23:46:01.368Z,9.47
2018-07-27T23:48:29.719Z,10.37
2018-07-27T23:50:58.040Z,8.80
2018-07-27T23:53:26.355Z,9.30
2018-07-27T23:55:54.647Z,10.53
2018-07-27T23:58:22.967Z,9.47
